sensor_id;sensor_type;location;lat;lon;timestamp;P1;durP1;ratioP1;P2;durP2;ratioP2
70545;SDS011;58098;51.680;5.134;2023-04-29T00:01:55;36.97;;;21.73;;
70545;SDS011;58098;51.680;5.134;2023-04-29T00:04:23;37.47;;;22.70;;
70545;SDS011;58098;51.680;5.134;2023-04-29T00:06:49;34.45;;;19.23;;
70545;SDS011;58098;51.680;5.134;2023-04-29T00:09:14;34.77;;;20.80;;
70545;SDS011;58098;51.680;5.134;2023-04-29T00:11:40;36.33;;;20.63;;
70545;SDS011;58098;51.680;5.134;2023-04-29T00:14:05;36.10;;;21.17;;
70545;SDS011;58098;51.680;5.134;2023-04-29T00:16:30;37.97;;;21.87;;
70545;SDS011;58098;51.680;5.134;2023-04-29T00:18:55;33.90;;;19.07;;
70545;SDS011;58098;51.680;5.134;2023-04-29T00:21:21;40.50;;;24.27;;
70545;SDS011;58098;51.680;5.134;2023-04-29T00:23:46;43.67;;;23.23;;
70545;SDS011;58098;51.680;5.134;2023-04-29T00:26:12;40.20;;;23.40;;
70545;SDS011;58098;51.680;5.134;2023-04-29T00:28:37;35.97;;;20.45;;
70545;SDS011;58098;51.680;5.134;2023-04-29T00:31:03;44.00;;;24.33;;
70545;SDS011;58098;51.680;5.134;2023-04-29T00:33:28;42.20;;;22.10;;
70545;SDS011;58098;51.680;5.134;2023-04-29T00:35:54;44.40;;;21.58;;
70545;SDS011;58098;51.680;5.134;2023-04-29T00:38:19;51.27;;;23.67;;
70545;SDS011;58098;51.680;5.134;2023-04-29T00:40:45;54.07;;;28.73;;
70545;SDS011;58098;51.680;5.134;2023-04-29T00:43:10;48.17;;;25.92;;
70545;SDS011;58098;51.680;5.134;2023-04-29T00:45:36;48.60;;;24.83;;
70545;SDS011;58098;51.680;5.134;2023-04-29T00:48:01;45.23;;;22.50;;
70545;SDS011;58098;51.680;5.134;2023-04-29T00:50:26;46.23;;;25.10;;
70545;SDS011;58098;51.680;5.134;2023-04-29T00:52:52;45.23;;;24.37;;
70545;SDS011;58098;51.680;5.134;2023-04-29T00:55:17;53.15;;;27.25;;
70545;SDS011;58098;51.680;5.134;2023-04-29T00:57:44;51.43;;;27.23;;
70545;SDS011;58098;51.680;5.134;2023-04-29T01:00:12;54.38;;;24.35;;
70545;SDS011;58098;51.680;5.134;2023-04-29T01:02:39;51.33;;;26.02;;
70545;SDS011;58098;51.680;5.134;2023-04-29T01:05:04;55.87;;;28.83;;
70545;SDS011;58098;51.680;5.134;2023-04-29T01:07:33;58.70;;;28.40;;
70545;SDS011;58098;51.680;5.134;2023-04-29T01:10:13;62.88;;;28.15;;
70545;SDS011;58098;51.680;5.134;2023-04-29T01:12:47;63.83;;;28.77;;
70545;SDS011;58098;51.680;5.134;2023-04-29T01:15:22;58.95;;;28.25;;
70545;SDS011;58098;51.680;5.134;2023-04-29T01:17:59;61.42;;;29.40;;
70545;SDS011;58098;51.680;5.134;2023-04-29T01:20:29;54.77;;;25.83;;
70545;SDS011;58098;51.680;5.134;2023-04-29T01:22:55;64.82;;;29.55;;
70545;SDS011;58098;51.680;5.134;2023-04-29T01:25:21;58.90;;;27.13;;
70545;SDS011;58098;51.680;5.134;2023-04-29T01:38:25;57.53;;;26.23;;
70545;SDS011;58098;51.680;5.134;2023-04-29T01:44:00;62.40;;;27.50;;
70545;SDS011;58098;51.680;5.134;2023-04-29T01:46:28;60.38;;;27.65;;
70545;SDS011;58098;51.680;5.134;2023-04-29T01:48:55;58.95;;;26.83;;
70545;SDS011;58098;51.680;5.134;2023-04-29T01:51:20;61.90;;;26.90;;
70545;SDS011;58098;51.680;5.134;2023-04-29T01:53:45;63.70;;;28.23;;
70545;SDS011;58098;51.680;5.134;2023-04-29T01:56:11;63.63;;;28.03;;
70545;SDS011;58098;51.680;5.134;2023-04-29T01:58:36;65.27;;;30.77;;
70545;SDS011;58098;51.680;5.134;2023-04-29T02:01:01;61.00;;;28.13;;
70545;SDS011;58098;51.680;5.134;2023-04-29T02:03:27;72.00;;;29.73;;
70545;SDS011;58098;51.680;5.134;2023-04-29T02:05:52;71.95;;;33.05;;
70545;SDS011;58098;51.680;5.134;2023-04-29T02:08:18;51.40;;;25.37;;
70545;SDS011;58098;51.680;5.134;2023-04-29T02:10:50;73.47;;;29.80;;
70545;SDS011;58098;51.680;5.134;2023-04-29T02:13:22;69.97;;;30.23;;
70545;SDS011;58098;51.680;5.134;2023-04-29T02:15:47;74.67;;;33.37;;
70545;SDS011;58098;51.680;5.134;2023-04-29T02:18:13;57.17;;;26.30;;
70545;SDS011;58098;51.680;5.134;2023-04-29T02:20:38;65.27;;;32.07;;
70545;SDS011;58098;51.680;5.134;2023-04-29T02:23:03;65.00;;;28.27;;
70545;SDS011;58098;51.680;5.134;2023-04-29T02:25:29;73.23;;;32.63;;
70545;SDS011;58098;51.680;5.134;2023-04-29T02:27:54;66.03;;;28.80;;
70545;SDS011;58098;51.680;5.134;2023-04-29T02:30:19;67.20;;;29.50;;
70545;SDS011;58098;51.680;5.134;2023-04-29T02:32:45;73.40;;;33.37;;
70545;SDS011;58098;51.680;5.134;2023-04-29T02:35:10;48.47;;;26.57;;
70545;SDS011;58098;51.680;5.134;2023-04-29T02:37:36;65.40;;;28.55;;
70545;SDS011;58098;51.680;5.134;2023-04-29T02:40:02;64.60;;;28.50;;
70545;SDS011;58098;51.680;5.134;2023-04-29T02:42:27;57.40;;;26.00;;
70545;SDS011;58098;51.680;5.134;2023-04-29T02:44:53;58.93;;;26.03;;
70545;SDS011;58098;51.680;5.134;2023-04-29T02:47:18;56.17;;;27.05;;
70545;SDS011;58098;51.680;5.134;2023-04-29T02:49:43;51.20;;;23.43;;
70545;SDS011;58098;51.680;5.134;2023-04-29T02:52:09;64.57;;;29.63;;
70545;SDS011;58098;51.680;5.134;2023-04-29T02:54:34;58.30;;;27.00;;
70545;SDS011;58098;51.680;5.134;2023-04-29T02:57:00;55.47;;;27.48;;
70545;SDS011;58098;51.680;5.134;2023-04-29T02:59:25;52.50;;;25.13;;
70545;SDS011;58098;51.680;5.134;2023-04-29T03:01:51;51.97;;;25.23;;
70545;SDS011;58098;51.680;5.134;2023-04-29T03:04:18;58.25;;;30.58;;
70545;SDS011;58098;51.680;5.134;2023-04-29T03:06:44;51.03;;;26.37;;
70545;SDS011;58098;51.680;5.134;2023-04-29T03:09:10;57.38;;;28.00;;
70545;SDS011;58098;51.680;5.134;2023-04-29T03:11:36;56.00;;;26.98;;
70545;SDS011;58098;51.680;5.134;2023-04-29T03:14:02;60.23;;;26.30;;
70545;SDS011;58098;51.680;5.134;2023-04-29T03:16:27;56.78;;;26.50;;
70545;SDS011;58098;51.680;5.134;2023-04-29T03:18:53;64.20;;;27.57;;
70545;SDS011;58098;51.680;5.134;2023-04-29T03:21:18;60.83;;;28.77;;
70545;SDS011;58098;51.680;5.134;2023-04-29T03:23:43;52.70;;;24.50;;
70545;SDS011;58098;51.680;5.134;2023-04-29T03:26:09;48.13;;;25.90;;
70545;SDS011;58098;51.680;5.134;2023-04-29T03:28:34;54.50;;;26.60;;
70545;SDS011;58098;51.680;5.134;2023-04-29T03:30:59;55.87;;;29.07;;
70545;SDS011;58098;51.680;5.134;2023-04-29T03:33:25;56.67;;;26.23;;
70545;SDS011;58098;51.680;5.134;2023-04-29T03:35:50;52.53;;;25.60;;
70545;SDS011;58098;51.680;5.134;2023-04-29T03:38:16;56.77;;;26.47;;
70545;SDS011;58098;51.680;5.134;2023-04-29T03:40:41;51.47;;;25.63;;
70545;SDS011;58098;51.680;5.134;2023-04-29T03:43:06;55.42;;;26.75;;
70545;SDS011;58098;51.680;5.134;2023-04-29T03:45:33;58.10;;;25.57;;
70545;SDS011;58098;51.680;5.134;2023-04-29T03:47:58;55.05;;;27.02;;
70545;SDS011;58098;51.680;5.134;2023-04-29T03:50:24;57.10;;;27.73;;
70545;SDS011;58098;51.680;5.134;2023-04-29T03:52:50;53.08;;;28.08;;
70545;SDS011;58098;51.680;5.134;2023-04-29T03:55:15;52.17;;;25.13;;
70545;SDS011;58098;51.680;5.134;2023-04-29T03:57:41;56.00;;;25.20;;
70545;SDS011;58098;51.680;5.134;2023-04-29T04:00:06;55.80;;;25.77;;
70545;SDS011;58098;51.680;5.134;2023-04-29T04:02:32;55.45;;;25.27;;
70545;SDS011;58098;51.680;5.134;2023-04-29T04:04:59;52.20;;;27.27;;
70545;SDS011;58098;51.680;5.134;2023-04-29T04:07:24;63.07;;;28.93;;
70545;SDS011;58098;51.680;5.134;2023-04-29T04:09:49;57.27;;;27.13;;
70545;SDS011;58098;51.680;5.134;2023-04-29T04:12:15;54.27;;;27.83;;
70545;SDS011;58098;51.680;5.134;2023-04-29T04:14:40;53.55;;;27.27;;
70545;SDS011;58098;51.680;5.134;2023-04-29T04:17:06;49.00;;;25.40;;
70545;SDS011;58098;51.680;5.134;2023-04-29T04:19:31;51.83;;;26.13;;
70545;SDS011;58098;51.680;5.134;2023-04-29T04:21:57;55.38;;;25.40;;
70545;SDS011;58098;51.680;5.134;2023-04-29T04:24:23;51.93;;;27.53;;
70545;SDS011;58098;51.680;5.134;2023-04-29T04:26:48;50.50;;;25.42;;
70545;SDS011;58098;51.680;5.134;2023-04-29T04:29:13;51.67;;;24.77;;
70545;SDS011;58098;51.680;5.134;2023-04-29T04:31:39;44.73;;;22.93;;
70545;SDS011;58098;51.680;5.134;2023-04-29T04:34:04;50.43;;;27.90;;
70545;SDS011;58098;51.680;5.134;2023-04-29T04:36:29;45.20;;;22.33;;
70545;SDS011;58098;51.680;5.134;2023-04-29T04:38:56;47.72;;;25.05;;
70545;SDS011;58098;51.680;5.134;2023-04-29T04:41:22;45.03;;;22.90;;
70545;SDS011;58098;51.680;5.134;2023-04-29T04:43:47;48.58;;;24.30;;
70545;SDS011;58098;51.680;5.134;2023-04-29T04:46:13;46.03;;;22.77;;
70545;SDS011;58098;51.680;5.134;2023-04-29T04:48:40;48.35;;;22.67;;
70545;SDS011;58098;51.680;5.134;2023-04-29T04:51:10;48.00;;;24.45;;
70545;SDS011;58098;51.680;5.134;2023-04-29T04:53:36;44.03;;;24.05;;
70545;SDS011;58098;51.680;5.134;2023-04-29T04:56:02;44.30;;;22.17;;
70545;SDS011;58098;51.680;5.134;2023-04-29T04:58:28;42.42;;;20.52;;
70545;SDS011;58098;51.680;5.134;2023-04-29T05:00:55;36.22;;;21.02;;
70545;SDS011;58098;51.680;5.134;2023-04-29T05:03:21;38.77;;;20.17;;
70545;SDS011;58098;51.680;5.134;2023-04-29T05:05:51;38.77;;;21.10;;
70545;SDS011;58098;51.680;5.134;2023-04-29T05:08:18;35.55;;;19.60;;
70545;SDS011;58098;51.680;5.134;2023-04-29T05:10:43;44.80;;;20.37;;
70545;SDS011;58098;51.680;5.134;2023-04-29T05:13:09;42.22;;;21.60;;
70545;SDS011;58098;51.680;5.134;2023-04-29T05:15:34;45.87;;;20.80;;
70545;SDS011;58098;51.680;5.134;2023-04-29T05:17:59;39.17;;;19.47;;
70545;SDS011;58098;51.680;5.134;2023-04-29T05:20:25;35.85;;;19.48;;
70545;SDS011;58098;51.680;5.134;2023-04-29T05:22:51;38.20;;;19.53;;
70545;SDS011;58098;51.680;5.134;2023-04-29T05:25:16;37.30;;;20.23;;
70545;SDS011;58098;51.680;5.134;2023-04-29T05:27:41;39.67;;;20.37;;
70545;SDS011;58098;51.680;5.134;2023-04-29T05:30:07;41.90;;;21.83;;
70545;SDS011;58098;51.680;5.134;2023-04-29T05:32:33;37.63;;;19.93;;
70545;SDS011;58098;51.680;5.134;2023-04-29T05:34:58;37.47;;;20.73;;
70545;SDS011;58098;51.680;5.134;2023-04-29T05:37:23;39.10;;;19.80;;
70545;SDS011;58098;51.680;5.134;2023-04-29T05:39:54;37.87;;;19.40;;
70545;SDS011;58098;51.680;5.134;2023-04-29T05:42:20;43.88;;;24.98;;
70545;SDS011;58098;51.680;5.134;2023-04-29T05:44:45;38.93;;;19.33;;
70545;SDS011;58098;51.680;5.134;2023-04-29T05:47:10;38.23;;;21.40;;
70545;SDS011;58098;51.680;5.134;2023-04-29T05:49:36;35.93;;;19.90;;
70545;SDS011;58098;51.680;5.134;2023-04-29T05:52:01;39.43;;;20.47;;
70545;SDS011;58098;51.680;5.134;2023-04-29T05:54:30;40.83;;;20.92;;
70545;SDS011;58098;51.680;5.134;2023-04-29T05:56:56;38.50;;;20.42;;
70545;SDS011;58098;51.680;5.134;2023-04-29T05:59:21;37.20;;;19.43;;
70545;SDS011;58098;51.680;5.134;2023-04-29T06:01:47;39.70;;;18.63;;
70545;SDS011;58098;51.680;5.134;2023-04-29T06:04:12;38.63;;;18.93;;
70545;SDS011;58098;51.680;5.134;2023-04-29T06:06:37;40.60;;;20.90;;
70545;SDS011;58098;51.680;5.134;2023-04-29T06:09:03;36.15;;;19.33;;
70545;SDS011;58098;51.680;5.134;2023-04-29T06:11:29;37.58;;;20.38;;
70545;SDS011;58098;51.680;5.134;2023-04-29T06:13:54;37.30;;;20.13;;
70545;SDS011;58098;51.680;5.134;2023-04-29T06:16:19;34.37;;;19.23;;
70545;SDS011;58098;51.680;5.134;2023-04-29T06:18:45;35.37;;;18.97;;
70545;SDS011;58098;51.680;5.134;2023-04-29T06:21:10;36.83;;;19.35;;
70545;SDS011;58098;51.680;5.134;2023-04-29T06:23:36;41.77;;;21.83;;
70545;SDS011;58098;51.680;5.134;2023-04-29T06:26:01;38.40;;;19.40;;
70545;SDS011;58098;51.680;5.134;2023-04-29T06:28:26;37.87;;;21.73;;
70545;SDS011;58098;51.680;5.134;2023-04-29T06:30:52;37.85;;;21.13;;
70545;SDS011;58098;51.680;5.134;2023-04-29T06:33:18;38.17;;;21.10;;
70545;SDS011;58098;51.680;5.134;2023-04-29T06:35:43;45.47;;;22.57;;
70545;SDS011;58098;51.680;5.134;2023-04-29T06:38:08;38.67;;;20.57;;
70545;SDS011;58098;51.680;5.134;2023-04-29T06:40:34;44.10;;;21.23;;
70545;SDS011;58098;51.680;5.134;2023-04-29T06:42:59;38.90;;;21.70;;
70545;SDS011;58098;51.680;5.134;2023-04-29T06:45:26;45.42;;;23.50;;
70545;SDS011;58098;51.680;5.134;2023-04-29T06:47:52;39.08;;;21.52;;
70545;SDS011;58098;51.680;5.134;2023-04-29T06:50:17;42.27;;;22.60;;
70545;SDS011;58098;51.680;5.134;2023-04-29T06:52:42;41.33;;;23.00;;
70545;SDS011;58098;51.680;5.134;2023-04-29T06:55:08;46.80;;;24.47;;
70545;SDS011;58098;51.680;5.134;2023-04-29T06:57:35;44.20;;;21.83;;
70545;SDS011;58098;51.680;5.134;2023-04-29T07:00:00;37.60;;;21.77;;
70545;SDS011;58098;51.680;5.134;2023-04-29T07:02:26;39.17;;;21.37;;
70545;SDS011;58098;51.680;5.134;2023-04-29T07:04:52;38.47;;;20.83;;
70545;SDS011;58098;51.680;5.134;2023-04-29T07:07:17;43.13;;;24.40;;
70545;SDS011;58098;51.680;5.134;2023-04-29T07:09:43;45.70;;;22.97;;
70545;SDS011;58098;51.680;5.134;2023-04-29T07:12:08;37.00;;;20.40;;
70545;SDS011;58098;51.680;5.134;2023-04-29T07:14:33;38.90;;;22.33;;
70545;SDS011;58098;51.680;5.134;2023-04-29T07:17:01;43.25;;;23.98;;
70545;SDS011;58098;51.680;5.134;2023-04-29T07:19:26;38.33;;;20.27;;
70545;SDS011;58098;51.680;5.134;2023-04-29T07:21:51;36.67;;;19.67;;
70545;SDS011;58098;51.680;5.134;2023-04-29T07:24:17;37.37;;;21.33;;
70545;SDS011;58098;51.680;5.134;2023-04-29T07:26:42;40.70;;;23.60;;
70545;SDS011;58098;51.680;5.134;2023-04-29T07:29:10;34.85;;;20.25;;
70545;SDS011;58098;51.680;5.134;2023-04-29T07:31:36;39.30;;;21.40;;
70545;SDS011;58098;51.680;5.134;2023-04-29T07:34:01;32.47;;;19.90;;
70545;SDS011;58098;51.680;5.134;2023-04-29T07:36:26;34.40;;;18.73;;
70545;SDS011;58098;51.680;5.134;2023-04-29T07:38:52;31.52;;;18.13;;
70545;SDS011;58098;51.680;5.134;2023-04-29T07:41:18;42.40;;;21.67;;
70545;SDS011;58098;51.680;5.134;2023-04-29T07:43:43;32.80;;;17.07;;
70545;SDS011;58098;51.680;5.134;2023-04-29T07:46:08;29.27;;;17.10;;
70545;SDS011;58098;51.680;5.134;2023-04-29T07:48:37;31.37;;;18.57;;
70545;SDS011;58098;51.680;5.134;2023-04-29T07:51:03;26.20;;;15.25;;
70545;SDS011;58098;51.680;5.134;2023-04-29T07:53:30;31.17;;;18.95;;
70545;SDS011;58098;51.680;5.134;2023-04-29T07:55:55;29.63;;;16.63;;
70545;SDS011;58098;51.680;5.134;2023-04-29T07:58:20;32.93;;;18.50;;
70545;SDS011;58098;51.680;5.134;2023-04-29T08:00:46;28.80;;;16.63;;
70545;SDS011;58098;51.680;5.134;2023-04-29T08:03:11;30.90;;;17.13;;
70545;SDS011;58098;51.680;5.134;2023-04-29T08:05:37;30.17;;;16.30;;
70545;SDS011;58098;51.680;5.134;2023-04-29T08:08:02;28.67;;;15.90;;
70545;SDS011;58098;51.680;5.134;2023-04-29T08:10:28;28.33;;;15.50;;
70545;SDS011;58098;51.680;5.134;2023-04-29T08:12:53;24.97;;;15.37;;
70545;SDS011;58098;51.680;5.134;2023-04-29T08:15:18;24.55;;;16.05;;
70545;SDS011;58098;51.680;5.134;2023-04-29T08:17:44;25.20;;;14.73;;
70545;SDS011;58098;51.680;5.134;2023-04-29T08:20:09;26.17;;;14.70;;
70545;SDS011;58098;51.680;5.134;2023-04-29T08:22:35;26.38;;;14.98;;
70545;SDS011;58098;51.680;5.134;2023-04-29T08:25:02;23.23;;;14.47;;
70545;SDS011;58098;51.680;5.134;2023-04-29T08:27:29;28.65;;;14.88;;
70545;SDS011;58098;51.680;5.134;2023-04-29T08:29:54;21.53;;;12.73;;
70545;SDS011;58098;51.680;5.134;2023-04-29T08:32:20;22.63;;;13.63;;
70545;SDS011;58098;51.680;5.134;2023-04-29T08:34:46;23.33;;;13.48;;
70545;SDS011;58098;51.680;5.134;2023-04-29T08:37:11;23.97;;;11.90;;
70545;SDS011;58098;51.680;5.134;2023-04-29T08:39:36;24.40;;;14.50;;
70545;SDS011;58098;51.680;5.134;2023-04-29T08:42:08;23.83;;;14.43;;
70545;SDS011;58098;51.680;5.134;2023-04-29T08:44:34;24.10;;;14.93;;
70545;SDS011;58098;51.680;5.134;2023-04-29T08:47:01;25.52;;;14.75;;
70545;SDS011;58098;51.680;5.134;2023-04-29T08:49:29;26.33;;;15.13;;
70545;SDS011;58098;51.680;5.134;2023-04-29T08:51:57;23.83;;;14.25;;
70545;SDS011;58098;51.680;5.134;2023-04-29T08:54:22;23.53;;;12.93;;
70545;SDS011;58098;51.680;5.134;2023-04-29T08:56:48;22.23;;;13.93;;
70545;SDS011;58098;51.680;5.134;2023-04-29T08:59:16;26.40;;;13.73;;
70545;SDS011;58098;51.680;5.134;2023-04-29T09:01:42;23.67;;;12.30;;
70545;SDS011;58098;51.680;5.134;2023-04-29T09:06:34;18.33;;;10.88;;
70545;SDS011;58098;51.680;5.134;2023-04-29T09:08:59;19.93;;;12.33;;
70545;SDS011;58098;51.680;5.134;2023-04-29T09:11:27;19.77;;;11.63;;
70545;SDS011;58098;51.680;5.134;2023-04-29T09:13:58;22.20;;;11.75;;
70545;SDS011;58098;51.680;5.134;2023-04-29T09:16:25;22.48;;;11.88;;
70545;SDS011;58098;51.680;5.134;2023-04-29T09:18:51;19.33;;;11.37;;
70545;SDS011;58098;51.680;5.134;2023-04-29T09:23:46;19.90;;;10.75;;
70545;SDS011;58098;51.680;5.134;2023-04-29T09:26:13;19.30;;;10.30;;
70545;SDS011;58098;51.680;5.134;2023-04-29T09:28:39;15.55;;;10.05;;
70545;SDS011;58098;51.680;5.134;2023-04-29T09:31:07;18.15;;;10.10;;
70545;SDS011;58098;51.680;5.134;2023-04-29T09:39:16;17.48;;;11.23;;
70545;SDS011;58098;51.680;5.134;2023-04-29T09:44:14;17.52;;;10.88;;
70545;SDS011;58098;51.680;5.134;2023-04-29T09:46:40;25.60;;;10.80;;
70545;SDS011;58098;51.680;5.134;2023-04-29T09:49:20;17.70;;;10.27;;
70545;SDS011;58098;51.680;5.134;2023-04-29T09:51:53;22.93;;;11.87;;
70545;SDS011;58098;51.680;5.134;2023-04-29T09:54:24;19.83;;;11.27;;
70545;SDS011;58098;51.680;5.134;2023-04-29T09:56:52;16.80;;;10.30;;
70545;SDS011;58098;51.680;5.134;2023-04-29T09:59:18;15.30;;;9.40;;
70545;SDS011;58098;51.680;5.134;2023-04-29T10:01:48;15.37;;;9.47;;
70545;SDS011;58098;51.680;5.134;2023-04-29T10:04:15;16.92;;;9.30;;
70545;SDS011;58098;51.680;5.134;2023-04-29T10:06:42;17.70;;;10.02;;
70545;SDS011;58098;51.680;5.134;2023-04-29T10:09:09;14.00;;;9.63;;
70545;SDS011;58098;51.680;5.134;2023-04-29T10:11:40;18.60;;;9.45;;
70545;SDS011;58098;51.680;5.134;2023-04-29T10:14:06;17.13;;;10.00;;
70545;SDS011;58098;51.680;5.134;2023-04-29T10:16:37;15.40;;;9.68;;
70545;SDS011;58098;51.680;5.134;2023-04-29T10:19:08;16.52;;;8.65;;
70545;SDS011;58098;51.680;5.134;2023-04-29T10:21:36;13.63;;;7.85;;
70545;SDS011;58098;51.680;5.134;2023-04-29T10:24:02;13.30;;;8.13;;
70545;SDS011;58098;51.680;5.134;2023-04-29T10:26:28;12.35;;;7.93;;
70545;SDS011;58098;51.680;5.134;2023-04-29T10:28:55;11.95;;;7.95;;
70545;SDS011;58098;51.680;5.134;2023-04-29T10:31:20;11.77;;;7.23;;
70545;SDS011;58098;51.680;5.134;2023-04-29T10:33:46;14.50;;;7.85;;
70545;SDS011;58098;51.680;5.134;2023-04-29T10:36:14;10.45;;;7.28;;
70545;SDS011;58098;51.680;5.134;2023-04-29T10:38:39;11.37;;;7.10;;
70545;SDS011;58098;51.680;5.134;2023-04-29T10:41:16;14.35;;;7.30;;
70545;SDS011;58098;51.680;5.134;2023-04-29T10:43:45;10.00;;;6.30;;
70545;SDS011;58098;51.680;5.134;2023-04-29T10:48:56;10.00;;;7.10;;
70545;SDS011;58098;51.680;5.134;2023-04-29T10:54:16;14.15;;;6.78;;
70545;SDS011;58098;51.680;5.134;2023-04-29T10:56:50;12.45;;;6.25;;
70545;SDS011;58098;51.680;5.134;2023-04-29T10:59:20;12.18;;;7.15;;
70545;SDS011;58098;51.680;5.134;2023-04-29T11:02:05;12.93;;;6.90;;
70545;SDS011;58098;51.680;5.134;2023-04-29T11:04:30;11.25;;;6.50;;
70545;SDS011;58098;51.680;5.134;2023-04-29T11:06:56;10.53;;;6.97;;
70545;SDS011;58098;51.680;5.134;2023-04-29T11:11:56;10.48;;;7.10;;
70545;SDS011;58098;51.680;5.134;2023-04-29T11:14:31;11.57;;;6.97;;
70545;SDS011;58098;51.680;5.134;2023-04-29T11:16:57;9.13;;;6.72;;
70545;SDS011;58098;51.680;5.134;2023-04-29T11:19:24;11.90;;;7.05;;
70545;SDS011;58098;51.680;5.134;2023-04-29T11:22:03;10.10;;;5.80;;
70545;SDS011;58098;51.680;5.134;2023-04-29T11:27:22;10.48;;;6.82;;
70545;SDS011;58098;51.680;5.134;2023-04-29T11:29:50;10.00;;;6.15;;
70545;SDS011;58098;51.680;5.134;2023-04-29T11:32:20;9.45;;;6.50;;
70545;SDS011;58098;51.680;5.134;2023-04-29T11:34:46;9.03;;;6.07;;
70545;SDS011;58098;51.680;5.134;2023-04-29T11:37:17;12.32;;;6.50;;
70545;SDS011;58098;51.680;5.134;2023-04-29T11:39:44;9.38;;;6.53;;
70545;SDS011;58098;51.680;5.134;2023-04-29T11:42:09;9.00;;;6.37;;
70545;SDS011;58098;51.680;5.134;2023-04-29T11:44:35;7.80;;;6.20;;
70545;SDS011;58098;51.680;5.134;2023-04-29T11:47:01;10.77;;;5.63;;
70545;SDS011;58098;51.680;5.134;2023-04-29T11:49:31;9.37;;;5.90;;
70545;SDS011;58098;51.680;5.134;2023-04-29T11:51:57;8.85;;;5.45;;
70545;SDS011;58098;51.680;5.134;2023-04-29T11:54:27;8.82;;;5.78;;
70545;SDS011;58098;51.680;5.134;2023-04-29T11:56:54;8.32;;;5.60;;
70545;SDS011;58098;51.680;5.134;2023-04-29T11:59:19;8.00;;;5.07;;
70545;SDS011;58098;51.680;5.134;2023-04-29T12:01:46;9.77;;;5.60;;
70545;SDS011;58098;51.680;5.134;2023-04-29T12:04:12;7.57;;;5.25;;
70545;SDS011;58098;51.680;5.134;2023-04-29T12:06:39;10.02;;;5.93;;
70545;SDS011;58098;51.680;5.134;2023-04-29T12:09:05;8.32;;;5.45;;
70545;SDS011;58098;51.680;5.134;2023-04-29T12:11:31;11.10;;;6.13;;
70545;SDS011;58098;51.680;5.134;2023-04-29T12:13:56;9.43;;;5.70;;
70545;SDS011;58098;51.680;5.134;2023-04-29T12:16:22;10.15;;;6.35;;
70545;SDS011;58098;51.680;5.134;2023-04-29T12:18:49;8.97;;;6.50;;
70545;SDS011;58098;51.680;5.134;2023-04-29T12:21:15;9.52;;;5.93;;
70545;SDS011;58098;51.680;5.134;2023-04-29T12:23:41;7.85;;;5.38;;
70545;SDS011;58098;51.680;5.134;2023-04-29T12:26:06;7.00;;;4.70;;
70545;SDS011;58098;51.680;5.134;2023-04-29T12:28:33;7.25;;;5.10;;
70545;SDS011;58098;51.680;5.134;2023-04-29T12:30:58;7.17;;;4.73;;
70545;SDS011;58098;51.680;5.134;2023-04-29T12:33:26;8.55;;;5.38;;
70545;SDS011;58098;51.680;5.134;2023-04-29T12:35:53;6.43;;;5.03;;
70545;SDS011;58098;51.680;5.134;2023-04-29T12:38:24;9.43;;;5.43;;
70545;SDS011;58098;51.680;5.134;2023-04-29T12:40:54;8.20;;;4.93;;
70545;SDS011;58098;51.680;5.134;2023-04-29T12:43:29;9.05;;;4.80;;
70545;SDS011;58098;51.680;5.134;2023-04-29T12:46:01;8.52;;;4.97;;
70545;SDS011;58098;51.680;5.134;2023-04-29T12:48:33;6.10;;;4.30;;
70545;SDS011;58098;51.680;5.134;2023-04-29T12:51:02;6.68;;;4.60;;
70545;SDS011;58098;51.680;5.134;2023-04-29T12:53:28;7.67;;;4.60;;
70545;SDS011;58098;51.680;5.134;2023-04-29T12:55:54;8.38;;;4.50;;
70545;SDS011;58098;51.680;5.134;2023-04-29T12:58:20;7.20;;;4.97;;
70545;SDS011;58098;51.680;5.134;2023-04-29T13:00:46;7.23;;;4.70;;
70545;SDS011;58098;51.680;5.134;2023-04-29T13:03:11;9.17;;;4.93;;
70545;SDS011;58098;51.680;5.134;2023-04-29T13:05:36;6.72;;;4.80;;
70545;SDS011;58098;51.680;5.134;2023-04-29T13:08:02;6.77;;;4.30;;
70545;SDS011;58098;51.680;5.134;2023-04-29T13:10:30;7.18;;;5.05;;
70545;SDS011;58098;51.680;5.134;2023-04-29T13:12:57;6.93;;;4.03;;
70545;SDS011;58098;51.680;5.134;2023-04-29T13:15:22;8.35;;;4.32;;
70545;SDS011;58098;51.680;5.134;2023-04-29T13:17:47;6.43;;;4.40;;
70545;SDS011;58098;51.680;5.134;2023-04-29T13:20:13;7.37;;;4.40;;
70545;SDS011;58098;51.680;5.134;2023-04-29T13:22:39;6.97;;;4.63;;
70545;SDS011;58098;51.680;5.134;2023-04-29T13:25:04;8.13;;;4.57;;
70545;SDS011;58098;51.680;5.134;2023-04-29T13:27:30;6.35;;;4.93;;
70545;SDS011;58098;51.680;5.134;2023-04-29T13:29:56;7.17;;;4.83;;
70545;SDS011;58098;51.680;5.134;2023-04-29T13:32:22;7.22;;;5.03;;
70545;SDS011;58098;51.680;5.134;2023-04-29T13:34:51;6.65;;;4.65;;
70545;SDS011;58098;51.680;5.134;2023-04-29T13:37:17;6.07;;;4.27;;
70545;SDS011;58098;51.680;5.134;2023-04-29T13:39:42;7.28;;;4.50;;
70545;SDS011;58098;51.680;5.134;2023-04-29T13:42:07;7.87;;;4.40;;
70545;SDS011;58098;51.680;5.134;2023-04-29T13:44:34;6.13;;;4.57;;
70545;SDS011;58098;51.680;5.134;2023-04-29T13:47:00;5.87;;;3.90;;
70545;SDS011;58098;51.680;5.134;2023-04-29T13:49:25;6.40;;;4.27;;
70545;SDS011;58098;51.680;5.134;2023-04-29T13:51:51;5.93;;;3.72;;
70545;SDS011;58098;51.680;5.134;2023-04-29T13:54:16;5.93;;;3.97;;
70545;SDS011;58098;51.680;5.134;2023-04-29T13:56:44;6.63;;;4.80;;
70545;SDS011;58098;51.680;5.134;2023-04-29T13:59:10;7.33;;;4.83;;
70545;SDS011;58098;51.680;5.134;2023-04-29T14:01:35;7.95;;;4.93;;
70545;SDS011;58098;51.680;5.134;2023-04-29T14:04:01;9.10;;;4.23;;
70545;SDS011;58098;51.680;5.134;2023-04-29T14:06:26;4.43;;;3.90;;
70545;SDS011;58098;51.680;5.134;2023-04-29T14:08:52;4.65;;;3.80;;
70545;SDS011;58098;51.680;5.134;2023-04-29T14:11:17;6.57;;;4.17;;
70545;SDS011;58098;51.680;5.134;2023-04-29T14:13:43;5.67;;;3.60;;
70545;SDS011;58098;51.680;5.134;2023-04-29T14:16:08;6.23;;;4.50;;
70545;SDS011;58098;51.680;5.134;2023-04-29T14:18:34;5.13;;;3.90;;
70545;SDS011;58098;51.680;5.134;2023-04-29T14:20:59;5.90;;;3.67;;
70545;SDS011;58098;51.680;5.134;2023-04-29T14:23:24;5.60;;;4.03;;
70545;SDS011;58098;51.680;5.134;2023-04-29T14:25:50;7.77;;;4.57;;
70545;SDS011;58098;51.680;5.134;2023-04-29T14:28:15;5.37;;;3.57;;
70545;SDS011;58098;51.680;5.134;2023-04-29T14:30:41;5.67;;;3.80;;
70545;SDS011;58098;51.680;5.134;2023-04-29T14:33:07;5.20;;;3.47;;
70545;SDS011;58098;51.680;5.134;2023-04-29T14:35:33;8.35;;;4.85;;
70545;SDS011;58098;51.680;5.134;2023-04-29T14:37:58;5.13;;;4.63;;
70545;SDS011;58098;51.680;5.134;2023-04-29T14:40:23;6.07;;;4.00;;
70545;SDS011;58098;51.680;5.134;2023-04-29T14:42:49;4.10;;;3.50;;
70545;SDS011;58098;51.680;5.134;2023-04-29T14:45:14;7.77;;;3.87;;
70545;SDS011;58098;51.680;5.134;2023-04-29T14:47:41;4.57;;;2.92;;
70545;SDS011;58098;51.680;5.134;2023-04-29T14:50:06;5.77;;;3.20;;
70545;SDS011;58098;51.680;5.134;2023-04-29T14:52:34;5.70;;;3.67;;
70545;SDS011;58098;51.680;5.134;2023-04-29T14:55:00;6.70;;;3.90;;
70545;SDS011;58098;51.680;5.134;2023-04-29T14:57:25;5.83;;;3.60;;
70545;SDS011;58098;51.680;5.134;2023-04-29T14:59:50;4.77;;;3.73;;
70545;SDS011;58098;51.680;5.134;2023-04-29T15:02:16;5.20;;;3.50;;